Moveon — CQBR — position and weather

sailwx.info

Track history (hours):
 
Tides and Currents Weather Stations Pressure Air Temp Water Temp Dewpoint Dewpoint Depression Visibility Wind Speed Wind Dir Waves Ship Positions

Moveon

Last reported at 2017-Oct-19 01:56 UTC. Time now 2017-Oct-19 02:18 UTC.
Position N 28°26' W 016°05'.

Length 134 m; draft 7.1 m.

Type: Ship. MMSI: 255805846.

Date/timePositionNaut miles runAvg speedWind from/ knotsBaromVisibWave heightAir tempDewpointWater temp
2017-Oct-19 01:56N 28°26' W 016°05'1 0.8
2017-Oct-19 01:14N 28°27' W 016°05'0 0.5
2017-Oct-19 00:58N 28°27' W 016°05'0 0.6
2017-Oct-19 00:27N 28°27' W 016°06'0 0.4
2017-Oct-19 00:00N 28°27' W 016°06'1 2.3
2017-Oct-18 23:30N 28°26' W 016°05'713.4
2017-Oct-18 23:00N 28°23' W 015°59'714.9
2017-Oct-18 22:31N 28°19' W 015°52'815.7
2017-Oct-18 22:01N 28°17' W 015°43'815.7
2017-Oct-18 21:31N 28°16' W 015°34'815.1
2017-Oct-18 21:01N 28°14' W 015°26'611.8
2017-Oct-18 20:31N 28°08' W 015°23'2 3.7
2017-Oct-18 19:57N 28°08' W 015°25'0 0.0
2017-Oct-18 19:27N 28°08' W 015°25'0 0.0
2017-Oct-18 18:57N 28°08' W 015°25'0 0.0
2017-Oct-18 18:27N 28°08' W 015°25'0 0.0
2017-Oct-18 17:54N 28°08' W 015°25'0 0.0
2017-Oct-18 17:30N 28°08' W 015°25'0 0.0
2017-Oct-18 17:00N 28°08' W 015°25'0 0.0
2017-Oct-18 16:30N 28°08' W 015°25'0 0.0
2017-Oct-18 16:00N 28°08' W 015°25'0 0.0
2017-Oct-18 15:30N 28°08' W 015°25'0 0.0
2017-Oct-18 15:00N 28°08' W 015°25'0 0.0
2017-Oct-18 14:00N 28°08' W 015°25'0 0.0
2017-Oct-18 13:30N 28°08' W 015°25'0 0.0
2017-Oct-18 13:00N 28°08' W 015°25'0 0.0
2017-Oct-18 12:30N 28°08' W 015°25'0 0.0
2017-Oct-18 12:00N 28°08' W 015°25'0 0.0
2017-Oct-18 11:30N 28°08' W 015°25'0 0.0
2017-Oct-18 11:00N 28°08' W 015°25'0 0.0
2017-Oct-18 10:30N 28°08' W 015°25'0 0.0
2017-Oct-18 09:51N 28°08' W 015°25'0 0.0
2017-Oct-18 09:21N 28°08' W 015°25'0 0.0
2017-Oct-18 08:54N 28°08' W 015°25'0 0.0
2017-Oct-18 08:24N 28°08' W 015°25'0 0.0
2017-Oct-18 07:54N 28°08' W 015°25'0 0.0
2017-Oct-18 07:24N 28°08' W 015°25'0 0.0
2017-Oct-18 07:00N 28°08' W 015°25'0 0.0
2017-Oct-18 06:30N 28°08' W 015°25'0 0.0
2017-Oct-18 06:00N 28°08' W 015°25'0 0.8
2017-Oct-18 05:30N 28°08' W 015°25'2 4.2
2017-Oct-18 05:00N 28°07' W 015°23'4 8.8
2017-Oct-18 04:30N 28°07' W 015°18'510.4
2017-Oct-18 04:00N 28°07' W 015°12'510.5
2017-Oct-18 03:30N 28°07' W 015°06'5 9.7
2017-Oct-18 03:00N 28°09' W 015°01'714.2
2017-Oct-18 02:30N 28°15' W 014°58'713.7
2017-Oct-18 02:00N 28°22' W 014°55'713.9
2017-Oct-18 01:30N 28°27' W 014°50'714.5
2017-Oct-18 01:01N 28°33' W 014°45'31914.7
2017-Oct-17 03:16N 32°19' W 010°25'2215.6
2017-Oct-17 01:50N 32°35' W 010°06'30216.2
2017-Oct-16 07:12N 35°57' W 005°35'316.9
2017-Oct-16 07:00N 35°58' W 005°31'916.3
2017-Oct-16 06:26N 36°01' W 005°20'22715.6
2017-Oct-15 15:53N 37°20' W 000°54'616.5
2017-Oct-15 15:29N 37°24' W 000°48'2416.3
2017-Oct-15 14:00N 37°42' W 000°27'  
2017-Oct-12 15:02N 41°12' E 002°03'115.7
2017-Oct-12 15:00N 41°12' E 002°02'715.2
2017-Oct-12 14:30N 41°09' E 001°53'815.6
2017-Oct-12 14:00N 41°07' E 001°43'  
2017-Oct-10 03:52N 37°45' W 000°21'713.6
2017-Oct-10 03:21N 37°39' W 000°25'1613.5
2017-Oct-10 02:10N 37°27' W 000°39'314.0
2017-Oct-10 01:58N 37°25' W 000°42'713.9
2017-Oct-10 01:30N 37°21' W 000°48'813.8
2017-Oct-10 00:55N 37°16' W 000°55'30113.6
2017-Oct-09 02:45N 36°04' W 007°00'312.6
2017-Oct-09 02:30N 36°05' W 007°04'713.1
2017-Oct-09 02:00N 36°07' W 007°12'  
Track history (hours):
 
Tides and Currents Weather Stations Pressure Air Temp Water Temp Dewpoint Dewpoint Depression Visibility Wind Speed Wind Dir Waves Ship Positions

Moveon

Last reported at 2017-Oct-19 01:56 UTC. Time now 2017-Oct-19 02:18 UTC.
Position N 28°26' W 016°05'.

Length 134 m; draft 7.1 m.

Type: Ship. MMSI: 255805846.

Date/timePositionNaut miles runAvg speedWind from/ knotsBaromVisibWave heightAir tempDewpointWater temp
2017-Oct-19 01:56N 28°26' W 016°05'1 0.8
2017-Oct-19 01:14N 28°27' W 016°05'0 0.5
2017-Oct-19 00:58N 28°27' W 016°05'0 0.6
2017-Oct-19 00:27N 28°27' W 016°06'0 0.4
2017-Oct-19 00:00N 28°27' W 016°06'1 2.3
2017-Oct-18 23:30N 28°26' W 016°05'713.4
2017-Oct-18 23:00N 28°23' W 015°59'714.9
2017-Oct-18 22:31N 28°19' W 015°52'815.7
2017-Oct-18 22:01N 28°17' W 015°43'815.7
2017-Oct-18 21:31N 28°16' W 015°34'815.1
2017-Oct-18 21:01N 28°14' W 015°26'611.8
2017-Oct-18 20:31N 28°08' W 015°23'2 3.7
2017-Oct-18 19:57N 28°08' W 015°25'0 0.0
2017-Oct-18 19:27N 28°08' W 015°25'0 0.0
2017-Oct-18 18:57N 28°08' W 015°25'0 0.0
2017-Oct-18 18:27N 28°08' W 015°25'0 0.0
2017-Oct-18 17:54N 28°08' W 015°25'0 0.0
2017-Oct-18 17:30N 28°08' W 015°25'0 0.0
2017-Oct-18 17:00N 28°08' W 015°25'0 0.0
2017-Oct-18 16:30N 28°08' W 015°25'0 0.0
2017-Oct-18 16:00N 28°08' W 015°25'0 0.0
2017-Oct-18 15:30N 28°08' W 015°25'0 0.0
2017-Oct-18 15:00N 28°08' W 015°25'0 0.0
2017-Oct-18 14:00N 28°08' W 015°25'0 0.0
2017-Oct-18 13:30N 28°08' W 015°25'0 0.0
2017-Oct-18 13:00N 28°08' W 015°25'0 0.0
2017-Oct-18 12:30N 28°08' W 015°25'0 0.0
2017-Oct-18 12:00N 28°08' W 015°25'0 0.0
2017-Oct-18 11:30N 28°08' W 015°25'0 0.0
2017-Oct-18 11:00N 28°08' W 015°25'0 0.0
2017-Oct-18 10:30N 28°08' W 015°25'0 0.0
2017-Oct-18 09:51N 28°08' W 015°25'0 0.0
2017-Oct-18 09:21N 28°08' W 015°25'0 0.0
2017-Oct-18 08:54N 28°08' W 015°25'0 0.0
2017-Oct-18 08:24N 28°08' W 015°25'0 0.0
2017-Oct-18 07:54N 28°08' W 015°25'0 0.0
2017-Oct-18 07:24N 28°08' W 015°25'0 0.0
2017-Oct-18 07:00N 28°08' W 015°25'0 0.0
2017-Oct-18 06:30N 28°08' W 015°25'0 0.0
2017-Oct-18 06:00N 28°08' W 015°25'0 0.8
2017-Oct-18 05:30N 28°08' W 015°25'2 4.2
2017-Oct-18 05:00N 28°07' W 015°23'4 8.8
2017-Oct-18 04:30N 28°07' W 015°18'510.4
2017-Oct-18 04:00N 28°07' W 015°12'510.5
2017-Oct-18 03:30N 28°07' W 015°06'5 9.7
2017-Oct-18 03:00N 28°09' W 015°01'714.2
2017-Oct-18 02:30N 28°15' W 014°58'713.7
2017-Oct-18 02:00N 28°22' W 014°55'713.9
2017-Oct-18 01:30N 28°27' W 014°50'714.5
2017-Oct-18 01:01N 28°33' W 014°45'31914.7
2017-Oct-17 03:16N 32°19' W 010°25'2215.6
2017-Oct-17 01:50N 32°35' W 010°06'30216.2
2017-Oct-16 07:12N 35°57' W 005°35'316.9
2017-Oct-16 07:00N 35°58' W 005°31'916.3
2017-Oct-16 06:26N 36°01' W 005°20'22715.6
2017-Oct-15 15:53N 37°20' W 000°54'616.5
2017-Oct-15 15:29N 37°24' W 000°48'2416.3
2017-Oct-15 14:00N 37°42' W 000°27'  
2017-Oct-12 15:02N 41°12' E 002°03'115.7
2017-Oct-12 15:00N 41°12' E 002°02'715.2
2017-Oct-12 14:30N 41°09' E 001°53'815.6
2017-Oct-12 14:00N 41°07' E 001°43'  
2017-Oct-10 03:52N 37°45' W 000°21'713.6
2017-Oct-10 03:21N 37°39' W 000°25'1613.5
2017-Oct-10 02:10N 37°27' W 000°39'314.0
2017-Oct-10 01:58N 37°25' W 000°42'713.9
2017-Oct-10 01:30N 37°21' W 000°48'813.8
2017-Oct-10 00:55N 37°16' W 000°55'30113.6
2017-Oct-09 02:45N 36°04' W 007°00'312.6
2017-Oct-09 02:30N 36°05' W 007°04'713.1
2017-Oct-09 02:00N 36°07' W 007°12'  

Dump ship's entire track history